sensor_id;sensor_type;location;lat;lon;timestamp;P1;durP1;ratioP1;P2;durP2;ratioP2
33862;SDS011;20158;51.436;-2.742;2023-03-01T00:01:12;2.25;;;2.03;;
33862;SDS011;20158;51.436;-2.742;2023-03-01T00:03:41;4.05;;;2.92;;
33862;SDS011;20158;51.436;-2.742;2023-03-01T00:06:07;2.30;;;2.10;;
33862;SDS011;20158;51.436;-2.742;2023-03-01T00:08:34;2.08;;;1.88;;
33862;SDS011;20158;51.436;-2.742;2023-03-01T00:11:05;1.92;;;1.70;;
33862;SDS011;20158;51.436;-2.742;2023-03-01T00:13:33;2.38;;;1.80;;
33862;SDS011;20158;51.436;-2.742;2023-03-01T00:16:01;1.50;;;1.30;;
33862;SDS011;20158;51.436;-2.742;2023-03-01T00:18:29;1.50;;;1.17;;
33862;SDS011;20158;51.436;-2.742;2023-03-01T00:20:55;1.42;;;1.33;;
33862;SDS011;20158;51.436;-2.742;2023-03-01T00:23:21;1.65;;;1.52;;
33862;SDS011;20158;51.436;-2.742;2023-03-01T00:25:48;2.70;;;1.45;;
33862;SDS011;20158;51.436;-2.742;2023-03-01T00:28:14;2.10;;;1.30;;
33862;SDS011;20158;51.436;-2.742;2023-03-01T00:30:41;1.33;;;1.20;;
33862;SDS011;20158;51.436;-2.742;2023-03-01T00:33:07;1.48;;;1.10;;
33862;SDS011;20158;51.436;-2.742;2023-03-01T00:35:33;1.02;;;0.90;;
33862;SDS011;20158;51.436;-2.742;2023-03-01T00:37:59;1.20;;;1.02;;
33862;SDS011;20158;51.436;-2.742;2023-03-01T00:40:26;0.90;;;0.88;;
33862;SDS011;20158;51.436;-2.742;2023-03-01T00:42:53;1.10;;;1.00;;
33862;SDS011;20158;51.436;-2.742;2023-03-01T00:45:19;1.45;;;1.05;;
33862;SDS011;20158;51.436;-2.742;2023-03-01T00:47:45;0.88;;;0.85;;
33862;SDS011;20158;51.436;-2.742;2023-03-01T00:50:11;0.70;;;0.70;;
33862;SDS011;20158;51.436;-2.742;2023-03-01T00:52:37;0.75;;;0.75;;
33862;SDS011;20158;51.436;-2.742;2023-03-01T00:55:03;1.63;;;0.80;;
33862;SDS011;20158;51.436;-2.742;2023-03-01T00:57:30;0.80;;;0.70;;
33862;SDS011;20158;51.436;-2.742;2023-03-01T00:59:56;0.50;;;0.50;;
33862;SDS011;20158;51.436;-2.742;2023-03-01T01:02:22;0.77;;;0.70;;
33862;SDS011;20158;51.436;-2.742;2023-03-01T01:04:48;0.43;;;0.43;;
33862;SDS011;20158;51.436;-2.742;2023-03-01T01:07:14;1.10;;;0.70;;
33862;SDS011;20158;51.436;-2.742;2023-03-01T01:09:40;0.47;;;0.47;;
33862;SDS011;20158;51.436;-2.742;2023-03-01T01:12:06;1.85;;;0.70;;
33862;SDS011;20158;51.436;-2.742;2023-03-01T01:14:33;0.70;;;0.63;;
33862;SDS011;20158;51.436;-2.742;2023-03-01T01:17:00;0.55;;;0.55;;
33862;SDS011;20158;51.436;-2.742;2023-03-01T01:19:26;0.52;;;0.52;;
33862;SDS011;20158;51.436;-2.742;2023-03-01T01:21:52;0.55;;;0.40;;
33862;SDS011;20158;51.436;-2.742;2023-03-01T01:24:18;0.80;;;0.80;;
33862;SDS011;20158;51.436;-2.742;2023-03-01T01:26:45;0.85;;;0.60;;
33862;SDS011;20158;51.436;-2.742;2023-03-01T01:29:12;0.93;;;0.60;;
33862;SDS011;20158;51.436;-2.742;2023-03-01T01:31:38;0.50;;;0.50;;
33862;SDS011;20158;51.436;-2.742;2023-03-01T01:34:06;1.23;;;0.75;;
33862;SDS011;20158;51.436;-2.742;2023-03-01T01:36:34;0.50;;;0.40;;
33862;SDS011;20158;51.436;-2.742;2023-03-01T01:39:00;0.93;;;0.52;;
33862;SDS011;20158;51.436;-2.742;2023-03-01T01:41:27;1.23;;;0.60;;
33862;SDS011;20158;51.436;-2.742;2023-03-01T01:49:19;0.52;;;0.52;;
33862;SDS011;20158;51.436;-2.742;2023-03-01T01:55:11;0.43;;;0.43;;
33862;SDS011;20158;51.436;-2.742;2023-03-01T01:57:47;0.90;;;0.60;;
33862;SDS011;20158;51.436;-2.742;2023-03-01T02:00:17;0.68;;;0.68;;
33862;SDS011;20158;51.436;-2.742;2023-03-01T02:02:46;0.65;;;0.57;;
33862;SDS011;20158;51.436;-2.742;2023-03-01T02:05:19;0.90;;;0.50;;
33862;SDS011;20158;51.436;-2.742;2023-03-01T02:08:01;0.60;;;0.50;;
33862;SDS011;20158;51.436;-2.742;2023-03-01T02:10:28;0.55;;;0.47;;
33862;SDS011;20158;51.436;-2.742;2023-03-01T02:12:58;0.40;;;0.40;;
33862;SDS011;20158;51.436;-2.742;2023-03-01T02:15:26;0.38;;;0.38;;
33862;SDS011;20158;51.436;-2.742;2023-03-01T02:17:52;0.40;;;0.30;;
33862;SDS011;20158;51.436;-2.742;2023-03-01T02:23:16;0.77;;;0.40;;
33862;SDS011;20158;51.436;-2.742;2023-03-01T02:28:31;1.60;;;0.50;;
33862;SDS011;20158;51.436;-2.742;2023-03-01T02:30:59;0.60;;;0.47;;
33862;SDS011;20158;51.436;-2.742;2023-03-01T02:33:44;0.60;;;0.40;;
33862;SDS011;20158;51.436;-2.742;2023-03-01T02:36:14;0.70;;;0.50;;
33862;SDS011;20158;51.436;-2.742;2023-03-01T02:38:43;0.77;;;0.43;;
33862;SDS011;20158;51.436;-2.742;2023-03-01T02:41:10;0.57;;;0.40;;
33862;SDS011;20158;51.436;-2.742;2023-03-01T02:43:40;0.68;;;0.50;;
33862;SDS011;20158;51.436;-2.742;2023-03-01T02:46:17;1.58;;;0.60;;
33862;SDS011;20158;51.436;-2.742;2023-03-01T02:48:54;0.65;;;0.30;;
33862;SDS011;20158;51.436;-2.742;2023-03-01T02:54:10;0.43;;;0.30;;
33862;SDS011;20158;51.436;-2.742;2023-03-01T02:56:53;0.73;;;0.52;;
33862;SDS011;20158;51.436;-2.742;2023-03-01T02:59:22;0.40;;;0.40;;
33862;SDS011;20158;51.436;-2.742;2023-03-01T03:01:52;0.85;;;0.47;;
33862;SDS011;20158;51.436;-2.742;2023-03-01T03:04:18;1.15;;;0.50;;
33862;SDS011;20158;51.436;-2.742;2023-03-01T03:06:48;0.55;;;0.50;;
33862;SDS011;20158;51.436;-2.742;2023-03-01T03:09:16;0.35;;;0.35;;
33862;SDS011;20158;51.436;-2.742;2023-03-01T03:11:43;1.40;;;0.47;;
33862;SDS011;20158;51.436;-2.742;2023-03-01T03:14:10;0.52;;;0.50;;
33862;SDS011;20158;51.436;-2.742;2023-03-01T03:16:40;0.85;;;0.43;;
33862;SDS011;20158;51.436;-2.742;2023-03-01T03:19:07;1.00;;;0.70;;
33862;SDS011;20158;51.436;-2.742;2023-03-01T03:21:34;0.93;;;0.45;;
33862;SDS011;20158;51.436;-2.742;2023-03-01T03:24:00;0.75;;;0.75;;
33862;SDS011;20158;51.436;-2.742;2023-03-01T03:26:26;0.60;;;0.57;;
33862;SDS011;20158;51.436;-2.742;2023-03-01T03:28:52;0.38;;;0.32;;
33862;SDS011;20158;51.436;-2.742;2023-03-01T03:31:18;0.70;;;0.50;;
33862;SDS011;20158;51.436;-2.742;2023-03-01T03:33:44;2.40;;;0.65;;
33862;SDS011;20158;51.436;-2.742;2023-03-01T03:36:14;1.00;;;0.65;;
33862;SDS011;20158;51.436;-2.742;2023-03-01T03:38:45;1.17;;;0.60;;
33862;SDS011;20158;51.436;-2.742;2023-03-01T03:41:11;1.23;;;0.55;;
33862;SDS011;20158;51.436;-2.742;2023-03-01T03:43:38;2.22;;;0.70;;
33862;SDS011;20158;51.436;-2.742;2023-03-01T03:46:06;1.25;;;0.88;;
33862;SDS011;20158;51.436;-2.742;2023-03-01T03:48:33;1.00;;;0.65;;
33862;SDS011;20158;51.436;-2.742;2023-03-01T03:51:00;1.27;;;0.50;;
33862;SDS011;20158;51.436;-2.742;2023-03-01T03:53:27;0.45;;;0.45;;
33862;SDS011;20158;51.436;-2.742;2023-03-01T03:55:54;1.27;;;0.70;;
33862;SDS011;20158;51.436;-2.742;2023-03-01T03:58:21;1.25;;;0.55;;
33862;SDS011;20158;51.436;-2.742;2023-03-01T04:00:49;0.68;;;0.52;;
33862;SDS011;20158;51.436;-2.742;2023-03-01T04:03:17;0.73;;;0.50;;
33862;SDS011;20158;51.436;-2.742;2023-03-01T04:05:45;1.17;;;0.50;;
33862;SDS011;20158;51.436;-2.742;2023-03-01T04:08:12;1.25;;;0.80;;
33862;SDS011;20158;51.436;-2.742;2023-03-01T04:10:43;1.08;;;0.52;;
33862;SDS011;20158;51.436;-2.742;2023-03-01T04:13:14;1.55;;;0.60;;
33862;SDS011;20158;51.436;-2.742;2023-03-01T04:15:42;0.67;;;0.50;;
33862;SDS011;20158;51.436;-2.742;2023-03-01T04:18:08;1.77;;;0.70;;
33862;SDS011;20158;51.436;-2.742;2023-03-01T04:20:38;0.55;;;0.55;;
33862;SDS011;20158;51.436;-2.742;2023-03-01T04:23:05;1.15;;;0.60;;
33862;SDS011;20158;51.436;-2.742;2023-03-01T04:25:49;1.00;;;0.60;;
33862;SDS011;20158;51.436;-2.742;2023-03-01T04:30:51;0.93;;;0.70;;
33862;SDS011;20158;51.436;-2.742;2023-03-01T04:33:18;1.40;;;0.70;;
33862;SDS011;20158;51.436;-2.742;2023-03-01T04:35:44;0.68;;;0.68;;
33862;SDS011;20158;51.436;-2.742;2023-03-01T04:38:10;1.08;;;0.70;;
33862;SDS011;20158;51.436;-2.742;2023-03-01T04:40:37;0.70;;;0.60;;
33862;SDS011;20158;51.436;-2.742;2023-03-01T04:43:03;0.70;;;0.70;;
33862;SDS011;20158;51.436;-2.742;2023-03-01T04:45:31;2.10;;;0.73;;
33862;SDS011;20158;51.436;-2.742;2023-03-01T04:47:57;0.68;;;0.60;;
33862;SDS011;20158;51.436;-2.742;2023-03-01T04:50:23;0.75;;;0.75;;
33862;SDS011;20158;51.436;-2.742;2023-03-01T04:52:51;1.55;;;0.93;;
33862;SDS011;20158;51.436;-2.742;2023-03-01T04:55:17;0.93;;;0.70;;
33862;SDS011;20158;51.436;-2.742;2023-03-01T04:57:43;2.22;;;0.80;;
33862;SDS011;20158;51.436;-2.742;2023-03-01T05:00:10;1.20;;;1.10;;
33862;SDS011;20158;51.436;-2.742;2023-03-01T05:02:54;1.88;;;0.80;;
33862;SDS011;20158;51.436;-2.742;2023-03-01T05:05:22;1.38;;;1.10;;
33862;SDS011;20158;51.436;-2.742;2023-03-01T05:07:54;1.70;;;1.60;;
33862;SDS011;20158;51.436;-2.742;2023-03-01T05:10:22;1.35;;;1.25;;
33862;SDS011;20158;51.436;-2.742;2023-03-01T05:12:49;1.38;;;1.10;;
33862;SDS011;20158;51.436;-2.742;2023-03-01T05:15:17;2.05;;;1.85;;
33862;SDS011;20158;51.436;-2.742;2023-03-01T05:17:44;1.52;;;1.42;;
33862;SDS011;20158;51.436;-2.742;2023-03-01T05:20:11;5.57;;;1.60;;
33862;SDS011;20158;51.436;-2.742;2023-03-01T05:22:37;1.55;;;1.45;;
33862;SDS011;20158;51.436;-2.742;2023-03-01T05:25:04;1.40;;;1.23;;
33862;SDS011;20158;51.436;-2.742;2023-03-01T05:27:31;1.90;;;1.80;;
33862;SDS011;20158;51.436;-2.742;2023-03-01T05:29:56;1.52;;;1.40;;
33862;SDS011;20158;51.436;-2.742;2023-03-01T05:32:22;2.72;;;1.60;;
33862;SDS011;20158;51.436;-2.742;2023-03-01T05:34:48;2.38;;;1.52;;
33862;SDS011;20158;51.436;-2.742;2023-03-01T05:37:14;2.22;;;1.83;;
33862;SDS011;20158;51.436;-2.742;2023-03-01T05:39:40;1.80;;;1.70;;
33862;SDS011;20158;51.436;-2.742;2023-03-01T05:42:09;2.08;;;1.55;;
33862;SDS011;20158;51.436;-2.742;2023-03-01T05:44:36;2.25;;;1.80;;
33862;SDS011;20158;51.436;-2.742;2023-03-01T05:47:02;11.63;;;2.05;;
33862;SDS011;20158;51.436;-2.742;2023-03-01T05:49:28;2.45;;;1.90;;
33862;SDS011;20158;51.436;-2.742;2023-03-01T05:51:55;2.00;;;1.55;;
33862;SDS011;20158;51.436;-2.742;2023-03-01T05:54:21;2.50;;;1.95;;
33862;SDS011;20158;51.436;-2.742;2023-03-01T05:56:47;2.80;;;1.95;;
33862;SDS011;20158;51.436;-2.742;2023-03-01T05:59:13;2.72;;;1.90;;
33862;SDS011;20158;51.436;-2.742;2023-03-01T06:01:41;2.22;;;1.90;;
33862;SDS011;20158;51.436;-2.742;2023-03-01T06:04:07;2.55;;;1.83;;
33862;SDS011;20158;51.436;-2.742;2023-03-01T06:06:34;2.88;;;2.13;;
33862;SDS011;20158;51.436;-2.742;2023-03-01T06:09:03;1.85;;;1.75;;
33862;SDS011;20158;51.436;-2.742;2023-03-01T06:11:30;2.00;;;1.80;;
33862;SDS011;20158;51.436;-2.742;2023-03-01T06:13:55;2.88;;;2.00;;
33862;SDS011;20158;51.436;-2.742;2023-03-01T06:16:21;2.92;;;1.90;;
33862;SDS011;20158;51.436;-2.742;2023-03-01T06:18:47;1.80;;;1.70;;
33862;SDS011;20158;51.436;-2.742;2023-03-01T06:21:13;2.42;;;1.90;;
33862;SDS011;20158;51.436;-2.742;2023-03-01T06:23:39;2.53;;;1.90;;
33862;SDS011;20158;51.436;-2.742;2023-03-01T06:26:06;2.22;;;2.03;;
33862;SDS011;20158;51.436;-2.742;2023-03-01T06:28:33;2.30;;;2.10;;
33862;SDS011;20158;51.436;-2.742;2023-03-01T06:30:59;1.75;;;1.65;;
33862;SDS011;20158;51.436;-2.742;2023-03-01T06:33:25;2.58;;;2.03;;
33862;SDS011;20158;51.436;-2.742;2023-03-01T06:35:51;2.38;;;2.17;;
33862;SDS011;20158;51.436;-2.742;2023-03-01T06:38:19;2.88;;;2.30;;
33862;SDS011;20158;51.436;-2.742;2023-03-01T06:40:51;2.60;;;2.40;;
33862;SDS011;20158;51.436;-2.742;2023-03-01T06:43:18;3.45;;;2.70;;
33862;SDS011;20158;51.436;-2.742;2023-03-01T06:45:44;5.90;;;2.85;;
33862;SDS011;20158;51.436;-2.742;2023-03-01T06:48:10;4.97;;;2.55;;
33862;SDS011;20158;51.436;-2.742;2023-03-01T06:50:36;3.10;;;2.80;;
33862;SDS011;20158;51.436;-2.742;2023-03-01T06:53:02;3.33;;;2.60;;
33862;SDS011;20158;51.436;-2.742;2023-03-01T06:55:29;3.53;;;2.90;;
33862;SDS011;20158;51.436;-2.742;2023-03-01T06:57:56;3.72;;;2.45;;
33862;SDS011;20158;51.436;-2.742;2023-03-01T07:00:23;2.80;;;2.40;;
33862;SDS011;20158;51.436;-2.742;2023-03-01T07:02:50;4.22;;;2.88;;
33862;SDS011;20158;51.436;-2.742;2023-03-01T07:05:16;2.55;;;2.25;;
33862;SDS011;20158;51.436;-2.742;2023-03-01T07:07:42;3.80;;;2.97;;
33862;SDS011;20158;51.436;-2.742;2023-03-01T07:10:09;3.15;;;2.28;;
33862;SDS011;20158;51.436;-2.742;2023-03-01T07:12:35;3.55;;;2.40;;
33862;SDS011;20158;51.436;-2.742;2023-03-01T07:15:02;2.47;;;1.98;;
33862;SDS011;20158;51.436;-2.742;2023-03-01T07:17:29;4.38;;;2.47;;
33862;SDS011;20158;51.436;-2.742;2023-03-01T07:19:56;2.45;;;1.50;;
33862;SDS011;20158;51.436;-2.742;2023-03-01T07:22:22;3.58;;;1.92;;
33862;SDS011;20158;51.436;-2.742;2023-03-01T07:24:48;2.90;;;2.00;;
33862;SDS011;20158;51.436;-2.742;2023-03-01T07:27:14;3.35;;;2.40;;
33862;SDS011;20158;51.436;-2.742;2023-03-01T07:29:40;2.30;;;2.10;;
33862;SDS011;20158;51.436;-2.742;2023-03-01T07:32:06;3.17;;;2.40;;
33862;SDS011;20158;51.436;-2.742;2023-03-01T07:34:32;2.35;;;2.15;;
33862;SDS011;20158;51.436;-2.742;2023-03-01T07:36:58;2.33;;;2.13;;
33862;SDS011;20158;51.436;-2.742;2023-03-01T07:39:24;2.53;;;2.17;;
33862;SDS011;20158;51.436;-2.742;2023-03-01T07:41:50;3.10;;;1.95;;
33862;SDS011;20158;51.436;-2.742;2023-03-01T07:44:20;3.55;;;2.33;;
33862;SDS011;20158;51.436;-2.742;2023-03-01T07:46:46;2.42;;;2.10;;
33862;SDS011;20158;51.436;-2.742;2023-03-01T07:49:12;3.03;;;1.92;;
33862;SDS011;20158;51.436;-2.742;2023-03-01T07:51:38;2.40;;;2.20;;
33862;SDS011;20158;51.436;-2.742;2023-03-01T07:54:04;3.72;;;1.65;;
33862;SDS011;20158;51.436;-2.742;2023-03-01T07:56:30;3.97;;;2.00;;
33862;SDS011;20158;51.436;-2.742;2023-03-01T07:58:56;2.90;;;2.10;;
33862;SDS011;20158;51.436;-2.742;2023-03-01T08:01:25;2.92;;;2.33;;
33862;SDS011;20158;51.436;-2.742;2023-03-01T08:03:50;4.47;;;2.33;;
33862;SDS011;20158;51.436;-2.742;2023-03-01T08:06:16;3.95;;;2.25;;
33862;SDS011;20158;51.436;-2.742;2023-03-01T08:08:43;3.30;;;2.47;;
33862;SDS011;20158;51.436;-2.742;2023-03-01T08:11:13;2.67;;;2.47;;
33862;SDS011;20158;51.436;-2.742;2023-03-01T08:13:40;1.80;;;1.70;;
33862;SDS011;20158;51.436;-2.742;2023-03-01T08:16:07;3.15;;;2.00;;
33862;SDS011;20158;51.436;-2.742;2023-03-01T08:18:37;2.50;;;1.75;;
33862;SDS011;20158;51.436;-2.742;2023-03-01T08:21:07;2.63;;;1.90;;
33862;SDS011;20158;51.436;-2.742;2023-03-01T08:23:41;5.60;;;1.98;;
33862;SDS011;20158;51.436;-2.742;2023-03-01T08:28:43;3.28;;;1.90;;
33862;SDS011;20158;51.436;-2.742;2023-03-01T08:31:14;3.53;;;2.60;;
33862;SDS011;20158;51.436;-2.742;2023-03-01T08:33:42;2.38;;;1.80;;
33862;SDS011;20158;51.436;-2.742;2023-03-01T08:36:08;2.05;;;1.70;;
33862;SDS011;20158;51.436;-2.742;2023-03-01T08:38:34;3.05;;;1.60;;
33862;SDS011;20158;51.436;-2.742;2023-03-01T08:41:01;3.03;;;1.83;;
33862;SDS011;20158;51.436;-2.742;2023-03-01T08:43:28;2.10;;;1.90;;
33862;SDS011;20158;51.436;-2.742;2023-03-01T08:45:55;3.88;;;2.00;;
33862;SDS011;20158;51.436;-2.742;2023-03-01T08:48:21;2.58;;;1.70;;
33862;SDS011;20158;51.436;-2.742;2023-03-01T08:50:46;2.85;;;1.80;;
33862;SDS011;20158;51.436;-2.742;2023-03-01T08:53:12;3.15;;;1.70;;
33862;SDS011;20158;51.436;-2.742;2023-03-01T08:55:38;3.47;;;1.40;;
33862;SDS011;20158;51.436;-2.742;2023-03-01T08:58:04;1.92;;;1.73;;
33862;SDS011;20158;51.436;-2.742;2023-03-01T09:00:30;2.47;;;2.10;;
33862;SDS011;20158;51.436;-2.742;2023-03-01T09:02:56;2.90;;;1.83;;
33862;SDS011;20158;51.436;-2.742;2023-03-01T09:05:22;3.72;;;1.98;;
33862;SDS011;20158;51.436;-2.742;2023-03-01T09:07:48;2.75;;;1.90;;
33862;SDS011;20158;51.436;-2.742;2023-03-01T09:10:13;2.78;;;1.98;;
33862;SDS011;20158;51.436;-2.742;2023-03-01T09:12:39;3.35;;;2.00;;
33862;SDS011;20158;51.436;-2.742;2023-03-01T09:15:05;4.05;;;2.40;;
33862;SDS011;20158;51.436;-2.742;2023-03-01T09:17:32;2.42;;;2.08;;
33862;SDS011;20158;51.436;-2.742;2023-03-01T09:19:58;3.50;;;2.30;;
33862;SDS011;20158;51.436;-2.742;2023-03-01T09:22:25;3.05;;;1.80;;
33862;SDS011;20158;51.436;-2.742;2023-03-01T09:24:51;2.67;;;2.25;;
33862;SDS011;20158;51.436;-2.742;2023-03-01T09:27:16;2.60;;;2.03;;
33862;SDS011;20158;51.436;-2.742;2023-03-01T09:29:44;2.85;;;2.50;;
33862;SDS011;20158;51.436;-2.742;2023-03-01T09:32:10;3.40;;;2.20;;
33862;SDS011;20158;51.436;-2.742;2023-03-01T09:34:36;2.30;;;1.92;;
33862;SDS011;20158;51.436;-2.742;2023-03-01T09:37:40;3.28;;;2.08;;
33862;SDS011;20158;51.436;-2.742;2023-03-01T09:40:12;2.13;;;1.90;;
33862;SDS011;20158;51.436;-2.742;2023-03-01T09:43:06;5.55;;;2.92;;
33862;SDS011;20158;51.436;-2.742;2023-03-01T09:45:48;3.10;;;2.50;;
33862;SDS011;20158;51.436;-2.742;2023-03-01T09:48:18;3.88;;;2.70;;
33862;SDS011;20158;51.436;-2.742;2023-03-01T09:50:48;3.78;;;2.35;;
33862;SDS011;20158;51.436;-2.742;2023-03-01T09:53:16;5.05;;;2.58;;
33862;SDS011;20158;51.436;-2.742;2023-03-01T09:56:05;3.35;;;2.15;;
33862;SDS011;20158;51.436;-2.742;2023-03-01T10:06:58;2.30;;;2.10;;
33862;SDS011;20158;51.436;-2.742;2023-03-01T10:09:34;2.85;;;2.03;;
33862;SDS011;20158;51.436;-2.742;2023-03-01T10:12:02;2.47;;;2.00;;
33862;SDS011;20158;51.436;-2.742;2023-03-01T10:14:38;2.75;;;2.10;;
33862;SDS011;20158;51.436;-2.742;2023-03-01T10:17:12;2.58;;;1.95;;
33862;SDS011;20158;51.436;-2.742;2023-03-01T10:19:44;2.17;;;1.98;;
33862;SDS011;20158;51.436;-2.742;2023-03-01T10:24:50;2.35;;;2.13;;
33862;SDS011;20158;51.436;-2.742;2023-03-01T10:27:24;1.95;;;1.75;;
33862;SDS011;20158;51.436;-2.742;2023-03-01T10:36:01;2.03;;;1.77;;
33862;SDS011;20158;51.436;-2.742;2023-03-01T10:38:27;2.28;;;2.08;;
33862;SDS011;20158;51.436;-2.742;2023-03-01T10:40:58;1.90;;;1.73;;
33862;SDS011;20158;51.436;-2.742;2023-03-01T10:49:07;1.77;;;1.67;;
33862;SDS011;20158;51.436;-2.742;2023-03-01T10:51:40;3.42;;;1.88;;
33862;SDS011;20158;51.436;-2.742;2023-03-01T10:54:19;2.35;;;2.20;;
33862;SDS011;20158;51.436;-2.742;2023-03-01T11:04:57;1.73;;;1.63;;
33862;SDS011;20158;51.436;-2.742;2023-03-01T11:07:23;1.60;;;1.50;;
33862;SDS011;20158;51.436;-2.742;2023-03-01T11:09:49;1.75;;;1.60;;
33862;SDS011;20158;51.436;-2.742;2023-03-01T11:12:16;2.38;;;2.15;;
33862;SDS011;20158;51.436;-2.742;2023-03-01T11:14:49;1.95;;;1.60;;
33862;SDS011;20158;51.436;-2.742;2023-03-01T11:17:21;1.90;;;1.80;;
33862;SDS011;20158;51.436;-2.742;2023-03-01T11:22:31;1.88;;;1.77;;
33862;SDS011;20158;51.436;-2.742;2023-03-01T11:25:00;1.63;;;1.52;;
33862;SDS011;20158;51.436;-2.742;2023-03-01T11:27:31;2.13;;;1.92;;
33862;SDS011;20158;51.436;-2.742;2023-03-01T11:32:35;2.67;;;1.27;;
33862;SDS011;20158;51.436;-2.742;2023-03-01T11:35:22;2.83;;;1.70;;
33862;SDS011;20158;51.436;-2.742;2023-03-01T11:43:59;2.10;;;1.50;;
33862;SDS011;20158;51.436;-2.742;2023-03-01T11:46:37;1.77;;;1.48;;
33862;SDS011;20158;51.436;-2.742;2023-03-01T11:52:03;1.58;;;1.30;;
33862;SDS011;20158;51.436;-2.742;2023-03-01T11:54:57;1.77;;;1.63;;
33862;SDS011;20158;51.436;-2.742;2023-03-01T12:17:35;2.28;;;1.95;;
33862;SDS011;20158;51.436;-2.742;2023-03-01T12:26:14;2.47;;;2.00;;
33862;SDS011;20158;51.436;-2.742;2023-03-01T12:39:42;2.22;;;2.03;;
33862;SDS011;20158;51.436;-2.742;2023-03-01T12:51:09;4.50;;;2.78;;
33862;SDS011;20158;51.436;-2.742;2023-03-01T12:53:42;3.05;;;2.65;;
33862;SDS011;20158;51.436;-2.742;2023-03-01T12:56:13;2.92;;;2.70;;
33862;SDS011;20158;51.436;-2.742;2023-03-01T12:58:46;3.17;;;2.88;;
33862;SDS011;20158;51.436;-2.742;2023-03-01T13:07:15;3.40;;;3.05;;
33862;SDS011;20158;51.436;-2.742;2023-03-01T13:17:47;3.33;;;3.03;;
33862;SDS011;20158;51.436;-2.742;2023-03-01T13:20:34;3.22;;;2.95;;
33862;SDS011;20158;51.436;-2.742;2023-03-01T13:26:00;3.47;;;3.17;;
33862;SDS011;20158;51.436;-2.742;2023-03-01T13:31:06;3.33;;;3.05;;
33862;SDS011;20158;51.436;-2.742;2023-03-01T13:33:37;3.40;;;3.10;;
33862;SDS011;20158;51.436;-2.742;2023-03-01T13:36:06;4.00;;;3.22;;
33862;SDS011;20158;51.436;-2.742;2023-03-01T13:38:38;3.42;;;3.10;;
33862;SDS011;20158;51.436;-2.742;2023-03-01T13:41:11;3.03;;;2.83;;
33862;SDS011;20158;51.436;-2.742;2023-03-01T13:43:43;3.17;;;2.97;;
33862;SDS011;20158;51.436;-2.742;2023-03-01T13:46:15;4.60;;;3.55;;
33862;SDS011;20158;51.436;-2.742;2023-03-01T13:48:45;3.30;;;3.00;;
33862;SDS011;20158;51.436;-2.742;2023-03-01T13:51:15;3.58;;;3.28;;
33862;SDS011;20158;51.436;-2.742;2023-03-01T13:53:46;3.63;;;3.00;;
33862;SDS011;20158;51.436;-2.742;2023-03-01T13:58:45;3.15;;;2.90;;
33862;SDS011;20158;51.436;-2.742;2023-03-01T14:01:29;2.60;;;2.40;;
33862;SDS011;20158;51.436;-2.742;2023-03-01T14:03:57;4.40;;;2.53;;
33862;SDS011;20158;51.436;-2.742;2023-03-01T14:06:33;3.30;;;3.10;;
33862;SDS011;20158;51.436;-2.742;2023-03-01T14:09:13;2.60;;;2.40;;
33862;SDS011;20158;51.436;-2.742;2023-03-01T14:11:55;2.78;;;2.58;;
33862;SDS011;20158;51.436;-2.742;2023-03-01T14:20:00;2.40;;;2.20;;
33862;SDS011;20158;51.436;-2.742;2023-03-01T14:22:34;2.42;;;2.05;;
33862;SDS011;20158;51.436;-2.742;2023-03-01T14:25:03;2.40;;;2.20;;
33862;SDS011;20158;51.436;-2.742;2023-03-01T14:27:41;2.10;;;1.95;;
33862;SDS011;20158;51.436;-2.742;2023-03-01T14:32:51;3.22;;;2.72;;
33862;SDS011;20158;51.436;-2.742;2023-03-01T14:35:27;2.50;;;2.30;;
33862;SDS011;20158;51.436;-2.742;2023-03-01T14:37:57;3.45;;;2.47;;
33862;SDS011;20158;51.436;-2.742;2023-03-01T14:40:34;2.60;;;2.00;;
33862;SDS011;20158;51.436;-2.742;2023-03-01T14:43:01;3.08;;;2.28;;
33862;SDS011;20158;51.436;-2.742;2023-03-01T14:45:35;2.22;;;2.13;;
33862;SDS011;20158;51.436;-2.742;2023-03-01T14:48:02;3.38;;;2.17;;
33862;SDS011;20158;51.436;-2.742;2023-03-01T14:50:31;2.83;;;2.47;;
33862;SDS011;20158;51.436;-2.742;2023-03-01T14:52:59;2.47;;;2.28;;
33862;SDS011;20158;51.436;-2.742;2023-03-01T14:55:34;3.33;;;2.70;;
33862;SDS011;20158;51.436;-2.742;2023-03-01T14:58:09;2.53;;;2.30;;
33862;SDS011;20158;51.436;-2.742;2023-03-01T15:00:48;18.50;;;2.90;;
33862;SDS011;20158;51.436;-2.742;2023-03-01T15:06:11;5.53;;;2.42;;
33862;SDS011;20158;51.436;-2.742;2023-03-01T15:08:41;2.10;;;1.90;;
33862;SDS011;20158;51.436;-2.742;2023-03-01T15:11:19;2.13;;;1.90;;
33862;SDS011;20158;51.436;-2.742;2023-03-01T15:13:49;2.50;;;2.10;;
33862;SDS011;20158;51.436;-2.742;2023-03-01T15:16:18;2.47;;;2.20;;
33862;SDS011;20158;51.436;-2.742;2023-03-01T15:18:59;2.80;;;1.85;;
33862;SDS011;20158;51.436;-2.742;2023-03-01T15:21:35;2.78;;;1.73;;
33862;SDS011;20158;51.436;-2.742;2023-03-01T15:24:06;3.15;;;2.00;;
33862;SDS011;20158;51.436;-2.742;2023-03-01T15:26:46;2.13;;;1.92;;
33862;SDS011;20158;51.436;-2.742;2023-03-01T15:29:20;2.47;;;2.28;;
33862;SDS011;20158;51.436;-2.742;2023-03-01T15:31:56;2.63;;;1.95;;
33862;SDS011;20158;51.436;-2.742;2023-03-01T15:34:24;4.25;;;1.98;;
33862;SDS011;20158;51.436;-2.742;2023-03-01T15:36:53;2.45;;;1.90;;
33862;SDS011;20158;51.436;-2.742;2023-03-01T15:40:02;2.55;;;1.95;;
33862;SDS011;20158;51.436;-2.742;2023-03-01T15:42:36;2.72;;;1.85;;
33862;SDS011;20158;51.436;-2.742;2023-03-01T15:47:46;2.50;;;2.03;;
33862;SDS011;20158;51.436;-2.742;2023-03-01T15:55:30;1.92;;;1.73;;
33862;SDS011;20158;51.436;-2.742;2023-03-01T15:58:05;2.25;;;2.05;;
33862;SDS011;20158;51.436;-2.742;2023-03-01T16:00:37;2.58;;;1.95;;
33862;SDS011;20158;51.436;-2.742;2023-03-01T16:03:04;2.28;;;2.08;;
33862;SDS011;20158;51.436;-2.742;2023-03-01T16:05:32;2.85;;;2.35;;
33862;SDS011;20158;51.436;-2.742;2023-03-01T16:08:00;2.75;;;1.90;;
33862;SDS011;20158;51.436;-2.742;2023-03-01T16:10:26;3.20;;;2.63;;
33862;SDS011;20158;51.436;-2.742;2023-03-01T16:12:53;3.85;;;2.20;;
33862;SDS011;20158;51.436;-2.742;2023-03-01T16:15:20;2.85;;;1.90;;
33862;SDS011;20158;51.436;-2.742;2023-03-01T16:17:49;2.63;;;2.20;;
33862;SDS011;20158;51.436;-2.742;2023-03-01T16:20:21;2.28;;;2.08;;
33862;SDS011;20158;51.436;-2.742;2023-03-01T16:22:47;2.70;;;2.30;;
33862;SDS011;20158;51.436;-2.742;2023-03-01T16:25:14;3.20;;;2.60;;
33862;SDS011;20158;51.436;-2.742;2023-03-01T16:27:42;4.50;;;2.75;;
33862;SDS011;20158;51.436;-2.742;2023-03-01T16:30:09;3.05;;;2.30;;
33862;SDS011;20158;51.436;-2.742;2023-03-01T16:32:42;4.28;;;2.78;;
33862;SDS011;20158;51.436;-2.742;2023-03-01T16:35:10;2.40;;;2.20;;
33862;SDS011;20158;51.436;-2.742;2023-03-01T16:37:38;2.72;;;2.33;;
33862;SDS011;20158;51.436;-2.742;2023-03-01T16:40:05;4.25;;;3.10;;
33862;SDS011;20158;51.436;-2.742;2023-03-01T16:42:40;3.65;;;2.75;;
33862;SDS011;20158;51.436;-2.742;2023-03-01T16:45:07;3.85;;;2.42;;
33862;SDS011;20158;51.436;-2.742;2023-03-01T16:47:34;3.60;;;3.00;;
33862;SDS011;20158;51.436;-2.742;2023-03-01T16:50:00;3.15;;;2.80;;
33862;SDS011;20158;51.436;-2.742;2023-03-01T16:52:27;2.92;;;2.63;;
33862;SDS011;20158;51.436;-2.742;2023-03-01T16:54:53;2.92;;;2.70;;
33862;SDS011;20158;51.436;-2.742;2023-03-01T16:57:19;3.17;;;2.80;;
33862;SDS011;20158;51.436;-2.742;2023-03-01T16:59:44;3.25;;;2.55;;
33862;SDS011;20158;51.436;-2.742;2023-03-01T17:02:13;5.68;;;2.80;;
33862;SDS011;20158;51.436;-2.742;2023-03-01T17:04:44;4.60;;;2.72;;
33862;SDS011;20158;51.436;-2.742;2023-03-01T17:07:10;3.28;;;2.70;;
33862;SDS011;20158;51.436;-2.742;2023-03-01T17:09:39;3.75;;;2.70;;
33862;SDS011;20158;51.436;-2.742;2023-03-01T17:12:07;4.15;;;2.70;;
33862;SDS011;20158;51.436;-2.742;2023-03-01T17:14:34;4.07;;;2.58;;
33862;SDS011;20158;51.436;-2.742;2023-03-01T17:17:00;2.53;;;2.10;;
33862;SDS011;20158;51.436;-2.742;2023-03-01T17:19:27;2.53;;;2.30;;